Jelm, WY

5:49 PM MDT on July 23, 2016 (GMT -0600)
| | Change Station

Elev -9999 ft 0.00 °N, 0.00 °E | Updated

Partly Cloudy
Partly Cloudy
73 °F
Feels Like 73 °F
N
10
Wind Variable Wind from SSW
Gusts mph

Today
High -- | Low -- °F
--% Chance of Precip.
Yesterday
High -- | Low -- °F
Precip. -- in
Pressure 29.83 in
Visibility 10.0 miles
Clouds Few 12000 ft
Dew Point 37 °F
Humidity 26%
Rainfall --
Snow Depth Not available.
5:51 AM 8:28 PM
Waning Gibbous, 81% visible
METAR KLAR 232253Z AUTO 25014KT 10SM FEW120 29/02 A3021 RMK AO2 PK WND 30029/2203 WSHFT 2151 SLP100 T02890017 TSNO
Pressure 29.83 in
Visibility 10.0 miles
Clouds Few 12000 ft
Dew Point 37 °F
Humidity 26%
Rainfall --
Snow Depth Not available.
5:51 AM 8:28 PM
Waning Gibbous, 81% visible
METAR KLAR 232253Z AUTO 25014KT 10SM FEW120 29/02 A3021 RMK AO2 PK WND 30029/2203 WSHFT 2151 SLP100 T02890017 TSNO

10-Day Weather Forecast

Almanac

Astronomy

Jul. 23, 2016 Rise Set
Actual Time
Civil Twilight
Nautical Twilight
Astronomical Twilight
Moon
Length of Visible Light
Length of Day
Tomorrow will be .
, % of the Moon is Illuminated

Today's Extremes

State Highs State Lows

Community

WunderPhotos

Upload Photos

1,926,975 photos uploaded!

WunderBlog® & News

Nearby

Air Quality

  Air Quality AQ Index Pollutant
Not available.

Snow Depth

Station Depth Elevation

Earthquake Activity

City Distance Mag. Time & Date
Minimum magnitude displayed is 2.5.

Coastal Water Temperatures

Place Temperature

Stations

Nearby Weather Stations

Station Location Temp. Windchill Dew Point Humidity Wind Precip. Elev Updated Type
                   

Watches & Warnings

There are currently no watches in effect.